Time;durP1;ratioP1;P1;durP2;ratioP2;P2;SDS_P1;SDS_P2;PMS_P1;PMS_P2;Temp;Humidity;BMP_temperature;BMP_pressure;BME280_temperature;BME280_humidity;BME280_pressure;Samples;Min_cycle;Max_cycle;Signal;HPM_P1;HPM_P2
2022/03/17 00:02:04;;;;;;;40.33;24.73;;;;;;;;;;5099479;28;20195;-59
2022/03/17 00:04:30;;;;;;;36.60;24.25;;;;;;;;;;5095395;28;20174;-59
2022/03/17 00:06:56;;;;;;;38.35;24.00;;;;;;;;;;5097829;28;20695;-59
2022/03/17 00:09:21;;;;;;;40.10;24.40;;;;;;;;;;5078271;28;20190;-59
2022/03/17 00:11:47;;;;;;;41.72;25.05;;;;;;;;;;5076774;28;20168;-61
2022/03/17 00:14:12;;;;;;;37.60;24.55;;;;;;;;;;5085240;28;20286;-59
2022/03/17 00:16:37;;;;;;;34.50;24.60;;;;;;;;;;5101759;28;20179;-59
2022/03/17 00:19:07;;;;;;;36.80;24.95;;;;;;;;;;5094387;28;20248;-59
2022/03/17 00:21:33;;;;;;;39.28;24.73;;;;;;;;;;5090984;28;20181;-59
2022/03/17 00:23:58;;;;;;;36.70;23.05;;;;;;;;;;5091600;28;20198;-59
2022/03/17 00:26:23;;;;;;;37.45;24.00;;;;;;;;;;5100421;28;20228;-59
2022/03/17 00:28:48;;;;;;;39.63;24.17;;;;;;;;;;5094301;28;20704;-59
2022/03/17 00:31:16;;;;;;;28.80;20.85;;;;;;;;;;5075593;28;20176;-59
2022/03/17 00:33:41;;;;;;;31.95;21.33;;;;;;;;;;5097092;28;20261;-59
2022/03/17 00:36:06;;;;;;;30.85;21.85;;;;;;;;;;5101496;28;20567;-59
2022/03/17 00:38:32;;;;;;;31.75;20.95;;;;;;;;;;5101702;28;20228;-59
2022/03/17 00:40:57;;;;;;;30.27;20.98;;;;;;;;;;5096112;28;20237;-59
2022/03/17 00:43:24;;;;;;;28.10;21.42;;;;;;;;;;5098773;28;20698;-59
2022/03/17 00:45:50;;;;;;;32.38;23.10;;;;;;;;;;5110049;28;20182;-59
2022/03/17 00:48:15;;;;;;;31.83;21.55;;;;;;;;;;5103936;28;20262;-58
2022/03/17 00:50:41;;;;;;;32.00;21.48;;;;;;;;;;5103382;28;20196;-59
2022/03/17 00:53:06;;;;;;;34.92;22.25;;;;;;;;;;5100232;28;20849;-59
2022/03/17 00:55:32;;;;;;;34.10;20.13;;;;;;;;;;5102144;28;20210;-59
2022/03/17 00:57:57;;;;;;;31.27;19.95;;;;;;;;;;5104071;28;20219;-59
2022/03/17 01:00:22;;;;;;;27.27;19.00;;;;;;;;;;5099864;28;20184;-59
2022/03/17 01:02:49;;;;;;;25.38;19.23;;;;;;;;;;5101671;28;20683;-59
2022/03/17 01:05:15;;;;;;;31.63;21.08;;;;;;;;;;5094344;27;20172;-59
2022/03/17 01:07:40;;;;;;;31.80;21.38;;;;;;;;;;5100710;28;20182;-59
2022/03/17 01:10:07;;;;;;;32.25;20.83;;;;;;;;;;5103124;28;20187;-59
2022/03/17 01:12:32;;;;;;;29.63;21.50;;;;;;;;;;5084600;28;20188;-59
2022/03/17 01:14:58;;;;;;;29.45;19.67;;;;;;;;;;5080082;28;20176;-59
2022/03/17 01:17:23;;;;;;;31.23;20.75;;;;;;;;;;5084714;28;20184;-59
2022/03/17 01:19:49;;;;;;;28.60;20.27;;;;;;;;;;5110122;28;20183;-59
2022/03/17 01:22:14;;;;;;;33.55;20.85;;;;;;;;;;5101685;28;20200;-59
2022/03/17 01:24:39;;;;;;;26.90;20.02;;;;;;;;;;5110305;28;20182;-59
2022/03/17 01:27:05;;;;;;;28.98;20.90;;;;;;;;;;5102100;28;20184;-59
2022/03/17 01:29:30;;;;;;;30.75;20.27;;;;;;;;;;5097451;28;20183;-59
2022/03/17 01:31:55;;;;;;;26.02;19.58;;;;;;;;;;5093751;28;20329;-59
2022/03/17 01:34:21;;;;;;;26.48;19.25;;;;;;;;;;5078467;28;20895;-59
2022/03/17 01:36:46;;;;;;;31.27;21.23;;;;;;;;;;5080439;28;20180;-59
2022/03/17 01:39:11;;;;;;;29.90;20.23;;;;;;;;;;5090191;28;20177;-59
2022/03/17 01:41:38;;;;;;;29.33;18.75;;;;;;;;;;5104103;28;20208;-59
2022/03/17 01:44:03;;;;;;;27.08;19.13;;;;;;;;;;5102611;28;20260;-59
2022/03/17 01:46:29;;;;;;;27.63;19.45;;;;;;;;;;5095572;28;20191;-59
2022/03/17 01:48:54;;;;;;;27.48;19.00;;;;;;;;;;5101975;28;20186;-59
2022/03/17 01:51:19;;;;;;;25.65;18.35;;;;;;;;;;5091046;28;20252;-59
2022/03/17 01:53:45;;;;;;;22.83;17.80;;;;;;;;;;5092234;28;20180;-59
2022/03/17 01:56:10;;;;;;;25.13;18.10;;;;;;;;;;5078687;28;20251;-59
2022/03/17 01:58:35;;;;;;;27.25;18.25;;;;;;;;;;5080535;28;20869;-59
2022/03/17 02:01:01;;;;;;;28.42;20.00;;;;;;;;;;5093594;28;20176;-59
2022/03/17 02:03:27;;;;;;;34.72;23.88;;;;;;;;;;5106139;28;20199;-60
2022/03/17 02:05:53;;;;;;;36.45;24.02;;;;;;;;;;5095413;28;20175;-60
2022/03/17 02:08:18;;;;;;;32.13;22.52;;;;;;;;;;5095798;28;20177;-60
2022/03/17 02:13:27;;;;;;;35.35;23.38;;;;;;;;;;5108965;28;20616;-59
2022/03/17 02:15:53;;;;;;;32.17;23.10;;;;;;;;;;5078989;28;20181;-59
2022/03/17 02:18:19;;;;;;;34.90;23.50;;;;;;;;;;5098966;28;20211;-60
2022/03/17 02:20:45;;;;;;;31.58;22.15;;;;;;;;;;5101988;28;20266;-60
2022/03/17 02:25:58;;;;;;;31.83;22.00;;;;;;;;;;5100260;28;20167;-60
2022/03/17 02:28:25;;;;;;;32.83;22.63;;;;;;;;;;5101524;28;20175;-60
2022/03/17 02:30:50;;;;;;;37.15;23.42;;;;;;;;;;5101371;28;20275;-60
2022/03/17 02:33:16;;;;;;;34.30;24.95;;;;;;;;;;5100113;28;20263;-60
2022/03/17 02:35:42;;;;;;;32.03;21.67;;;;;;;;;;5085594;28;20581;-60
2022/03/17 02:38:07;;;;;;;33.75;22.20;;;;;;;;;;5097385;28;20184;-60
2022/03/17 02:40:34;;;;;;;31.42;21.70;;;;;;;;;;5099518;28;20192;-60
2022/03/17 02:42:59;;;;;;;22.58;15.10;;;;;;;;;;5099011;28;20297;-60
2022/03/17 02:45:25;;;;;;;19.13;15.65;;;;;;;;;;5098674;28;20266;-60
2022/03/17 02:47:51;;;;;;;16.23;12.40;;;;;;;;;;5100415;27;20191;-60
2022/03/17 02:50:17;;;;;;;18.10;12.85;;;;;;;;;;5104334;28;20310;-60
2022/03/17 02:52:43;;;;;;;16.35;12.52;;;;;;;;;;5099894;28;20610;-60
2022/03/17 02:55:11;;;;;;;15.80;11.02;;;;;;;;;;5100197;28;20177;-60
2022/03/17 02:57:36;;;;;;;11.88;10.10;;;;;;;;;;5100369;28;20202;-60
2022/03/17 03:00:03;;;;;;;12.18;9.98;;;;;;;;;;5098610;28;20183;-60
2022/03/17 03:02:30;;;;;;;11.77;9.15;;;;;;;;;;5099340;28;20199;-60
2022/03/17 03:04:55;;;;;;;11.48;8.93;;;;;;;;;;5102709;28;20196;-60
2022/03/17 03:07:20;;;;;;;9.90;8.90;;;;;;;;;;5105921;28;20186;-60
2022/03/17 03:09:46;;;;;;;9.02;8.02;;;;;;;;;;5104566;28;20185;-60
2022/03/17 03:12:11;;;;;;;9.68;8.18;;;;;;;;;;5092551;28;20267;-60
2022/03/17 03:14:37;;;;;;;6.60;5.97;;;;;;;;;;5089191;28;20183;-60
2022/03/17 03:17:02;;;;;;;5.88;5.20;;;;;;;;;;5099675;28;20183;-60
2022/03/17 03:19:27;;;;;;;6.57;4.90;;;;;;;;;;5096989;28;20210;-60
2022/03/17 03:21:53;;;;;;;5.38;4.97;;;;;;;;;;5098507;28;20214;-60
2022/03/17 03:24:18;;;;;;;5.60;4.15;;;;;;;;;;5099948;28;20217;-60
2022/03/17 03:26:44;;;;;;;5.15;4.60;;;;;;;;;;5097868;28;20180;-60
2022/03/17 03:29:22;;;;;;;4.32;3.92;;;;;;;;;;5092969;28;20268;-60
2022/03/17 03:31:51;;;;;;;4.32;3.92;;;;;;;;;;5100758;28;20179;-60
2022/03/17 03:34:17;;;;;;;3.83;3.53;;;;;;;;;;5099563;28;20183;-60
2022/03/17 03:39:26;;;;;;;4.03;3.67;;;;;;;;;;5084256;28;20206;-60
2022/03/17 03:41:52;;;;;;;3.83;3.63;;;;;;;;;;5077000;28;20176;-60
2022/03/17 03:44:17;;;;;;;3.80;3.50;;;;;;;;;;5079720;28;20380;-60
2022/03/17 03:46:42;;;;;;;2.92;2.72;;;;;;;;;;5087684;28;20184;-60
2022/03/17 03:49:08;;;;;;;2.45;2.22;;;;;;;;;;5089698;28;20578;-60
2022/03/17 03:51:33;;;;;;;2.97;2.78;;;;;;;;;;5090258;28;20214;-60
2022/03/17 03:54:15;;;;;;;2.65;2.53;;;;;;;;;;5096131;28;20311;-60
2022/03/17 03:56:41;;;;;;;3.22;3.00;;;;;;;;;;5098665;28;20615;-61
2022/03/17 03:59:12;;;;;;;2.90;2.70;;;;;;;;;;5106190;28;20186;-60
2022/03/17 04:01:37;;;;;;;3.08;2.88;;;;;;;;;;5095831;28;20576;-60
2022/03/17 04:04:02;;;;;;;4.00;3.70;;;;;;;;;;5097713;28;20207;-60
2022/03/17 04:06:28;;;;;;;4.60;4.28;;;;;;;;;;5100029;28;20187;-60
2022/03/17 04:08:53;;;;;;;3.50;3.20;;;;;;;;;;5103454;28;20176;-61
2022/03/17 04:11:18;;;;;;;3.53;3.20;;;;;;;;;;5096772;28;20182;-60
2022/03/17 04:13:44;;;;;;;2.80;2.60;;;;;;;;;;5096592;28;20706;-60
2022/03/17 04:16:09;;;;;;;2.53;2.40;;;;;;;;;;5096820;28;20231;-60
2022/03/17 04:18:35;;;;;;;2.75;2.55;;;;;;;;;;5099287;28;20190;-60
2022/03/17 04:21:00;;;;;;;3.63;3.33;;;;;;;;;;5100461;28;20270;-60
2022/03/17 04:23:25;;;;;;;3.25;2.97;;;;;;;;;;5095920;28;20230;-60
2022/03/17 04:25:50;;;;;;;3.60;3.30;;;;;;;;;;5098310;28;20176;-60
2022/03/17 04:28:16;;;;;;;3.95;3.65;;;;;;;;;;5100426;28;20210;-60
2022/03/17 04:30:41;;;;;;;7.50;5.07;;;;;;;;;;5098877;28;20595;-60
2022/03/17 04:33:06;;;;;;;6.45;5.25;;;;;;;;;;5098463;28;20264;-60
2022/03/17 04:35:32;;;;;;;6.35;5.55;;;;;;;;;;5098398;28;20636;-60
2022/03/17 04:37:57;;;;;;;8.45;6.53;;;;;;;;;;5094036;28;20180;-60
2022/03/17 04:40:23;;;;;;;6.10;5.50;;;;;;;;;;5094395;28;20283;-60
2022/03/17 04:42:48;;;;;;;5.82;5.25;;;;;;;;;;5094706;28;20855;-60
2022/03/17 04:45:14;;;;;;;5.50;5.00;;;;;;;;;;5096551;28;20755;-60
2022/03/17 04:47:39;;;;;;;7.38;6.18;;;;;;;;;;5099100;28;20206;-60
2022/03/17 04:50:05;;;;;;;6.30;5.65;;;;;;;;;;5087466;28;20241;-60
2022/03/17 04:55:14;;;;;;;8.55;7.15;;;;;;;;;;5100821;28;20175;-60
2022/03/17 04:57:40;;;;;;;9.65;7.75;;;;;;;;;;5097233;28;20180;-60
2022/03/17 05:00:06;;;;;;;9.52;7.30;;;;;;;;;;5097420;28;20399;-60
2022/03/17 05:02:31;;;;;;;9.32;7.30;;;;;;;;;;5098504;28;20208;-60
2022/03/17 05:04:57;;;;;;;9.52;7.32;;;;;;;;;;5075124;28;20219;-60
2022/03/17 05:07:22;;;;;;;11.15;7.20;;;;;;;;;;5077089;28;20855;-60
2022/03/17 05:09:47;;;;;;;11.73;8.45;;;;;;;;;;5083239;28;20233;-60
2022/03/17 05:12:12;;;;;;;10.20;8.05;;;;;;;;;;5100345;28;20656;-60
2022/03/17 05:14:38;;;;;;;10.48;7.40;;;;;;;;;;5100344;28;20171;-60
2022/03/17 05:17:03;;;;;;;7.60;6.68;;;;;;;;;;5094387;28;20172;-60
2022/03/17 05:19:28;;;;;;;8.10;6.82;;;;;;;;;;5096605;28;20313;-61
2022/03/17 05:21:54;;;;;;;10.13;7.20;;;;;;;;;;5094635;28;20208;-60
2022/03/17 05:24:19;;;;;;;8.57;7.20;;;;;;;;;;5100184;28;20680;-60
2022/03/17 05:26:45;;;;;;;9.35;7.20;;;;;;;;;;5098260;28;20180;-60
2022/03/17 05:29:12;;;;;;;10.15;7.90;;;;;;;;;;5101618;28;20183;-60
2022/03/17 05:31:37;;;;;;;15.00;9.38;;;;;;;;;;5099904;28;20294;-60
2022/03/17 05:34:03;;;;;;;9.70;8.30;;;;;;;;;;5093937;28;20251;-60
2022/03/17 05:36:29;;;;;;;9.70;7.40;;;;;;;;;;5095472;28;20177;-60
2022/03/17 05:38:54;;;;;;;8.88;6.47;;;;;;;;;;5108806;28;20191;-60
2022/03/17 05:41:20;;;;;;;7.47;6.38;;;;;;;;;;5102483;28;20268;-60
2022/03/17 05:43:46;;;;;;;13.82;9.02;;;;;;;;;;5101081;28;20211;-60
2022/03/17 05:46:12;;;;;;;14.15;9.40;;;;;;;;;;5100726;28;20207;-60
2022/03/17 05:48:40;;;;;;;10.20;8.30;;;;;;;;;;5099798;28;20180;-60
2022/03/17 05:51:05;;;;;;;8.88;7.32;;;;;;;;;;5103827;28;20200;-60
2022/03/17 05:53:30;;;;;;;10.38;8.18;;;;;;;;;;5100794;28;20179;-60
2022/03/17 05:55:56;;;;;;;7.75;6.50;;;;;;;;;;5101473;28;20179;-60
2022/03/17 05:58:21;;;;;;;9.27;6.55;;;;;;;;;;5095290;28;20275;-60
2022/03/17 06:00:46;;;;;;;6.97;5.95;;;;;;;;;;5094500;28;20172;-60
2022/03/17 06:03:11;;;;;;;8.82;6.30;;;;;;;;;;5102024;28;20297;-60
2022/03/17 06:05:37;;;;;;;7.82;6.18;;;;;;;;;;5094414;28;20171;-60
2022/03/17 06:08:02;;;;;;;10.02;6.70;;;;;;;;;;5098000;28;20184;-60
2022/03/17 06:10:32;;;;;;;22.30;15.00;;;;;;;;;;5098711;28;20187;-60
2022/03/17 06:13:00;;;;;;;10.35;8.95;;;;;;;;;;5098744;28;20191;-60
2022/03/17 06:15:26;;;;;;;23.17;16.52;;;;;;;;;;5095428;28;20224;-61
2022/03/17 06:17:53;;;;;;;19.70;14.60;;;;;;;;;;5091569;28;20653;-60
2022/03/17 06:20:19;;;;;;;14.80;11.20;;;;;;;;;;5099316;28;20183;-61
2022/03/17 06:22:46;;;;;;;14.48;11.80;;;;;;;;;;5092358;28;20196;-60
2022/03/17 06:25:16;;;;;;;16.23;13.07;;;;;;;;;;5101974;28;20189;-60
2022/03/17 06:27:43;;;;;;;14.57;11.88;;;;;;;;;;5089060;28;20195;-60
2022/03/17 06:30:09;;;;;;;14.18;10.95;;;;;;;;;;5098546;28;20168;-60
2022/03/17 06:32:34;;;;;;;11.48;9.18;;;;;;;;;;5101034;28;20171;-61
2022/03/17 06:35:00;;;;;;;10.40;9.38;;;;;;;;;;5099569;28;20175;-60
2022/03/17 06:37:26;;;;;;;11.52;9.50;;;;;;;;;;5097245;28;20184;-60
2022/03/17 06:39:51;;;;;;;12.95;10.05;;;;;;;;;;5099157;28;20725;-60
2022/03/17 06:42:16;;;;;;;12.80;9.48;;;;;;;;;;5092901;28;20176;-60
2022/03/17 06:44:41;;;;;;;10.15;9.13;;;;;;;;;;5096287;28;20184;-60
2022/03/17 06:47:07;;;;;;;10.82;8.07;;;;;;;;;;5103807;28;20173;-60
2022/03/17 06:49:32;;;;;;;10.65;8.93;;;;;;;;;;5078370;28;20197;-60
2022/03/17 06:51:58;;;;;;;10.10;8.18;;;;;;;;;;5078565;28;20280;-60
2022/03/17 06:54:24;;;;;;;9.82;8.82;;;;;;;;;;5085265;28;20197;-60
2022/03/17 06:56:49;;;;;;;10.50;8.40;;;;;;;;;;5103117;28;20317;-60
2022/03/17 06:59:14;;;;;;;11.27;8.90;;;;;;;;;;5099664;28;20203;-60
2022/03/17 07:01:40;;;;;;;12.63;8.93;;;;;;;;;;5092555;28;20186;-60
2022/03/17 07:04:05;;;;;;;11.65;9.77;;;;;;;;;;5101603;28;20711;-60
2022/03/17 07:06:30;;;;;;;17.45;11.52;;;;;;;;;;5103792;28;20171;-60
2022/03/17 07:08:56;;;;;;;15.52;11.18;;;;;;;;;;5106575;28;20175;-60
2022/03/17 07:11:22;;;;;;;17.92;12.25;;;;;;;;;;5096843;28;20262;-60
2022/03/17 07:13:47;;;;;;;22.17;13.88;;;;;;;;;;5089538;28;20188;-60
2022/03/17 07:16:12;;;;;;;18.38;12.82;;;;;;;;;;5093824;28;21062;-60
2022/03/17 07:18:38;;;;;;;21.48;14.00;;;;;;;;;;5104322;28;20188;-60
2022/03/17 07:21:03;;;;;;;19.63;14.07;;;;;;;;;;5097875;28;20229;-60
2022/03/17 07:23:28;;;;;;;22.67;15.23;;;;;;;;;;5101542;28;20291;-60
2022/03/17 07:25:53;;;;;;;23.42;15.20;;;;;;;;;;5102048;28;20573;-60
2022/03/17 07:28:21;;;;;;;20.70;13.95;;;;;;;;;;5103156;28;20180;-60
2022/03/17 07:30:46;;;;;;;25.48;15.80;;;;;;;;;;5084355;28;20263;-60
2022/03/17 07:33:12;;;;;;;23.35;15.63;;;;;;;;;;5077261;28;20342;-60
2022/03/17 07:35:38;;;;;;;23.02;16.27;;;;;;;;;;5079025;28;20256;-60
2022/03/17 07:38:05;;;;;;;26.85;17.38;;;;;;;;;;5093757;28;20180;-60
2022/03/17 07:40:30;;;;;;;30.58;19.50;;;;;;;;;;5099481;28;20198;-60
2022/03/17 07:42:55;;;;;;;28.77;16.67;;;;;;;;;;5101741;28;20199;-60
2022/03/17 07:45:21;;;;;;;29.83;19.15;;;;;;;;;;5101828;27;20168;-60
2022/03/17 07:47:47;;;;;;;26.92;19.52;;;;;;;;;;5095463;28;20172;-60
2022/03/17 07:50:13;;;;;;;26.60;18.88;;;;;;;;;;5095350;28;20196;-61
2022/03/17 07:52:38;;;;;;;29.13;18.05;;;;;;;;;;5097018;28;20179;-60
2022/03/17 07:55:04;;;;;;;29.13;18.52;;;;;;;;;;5097613;28;20863;-60
2022/03/17 07:57:30;;;;;;;28.52;19.63;;;;;;;;;;5101781;28;20183;-60
2022/03/17 07:59:56;;;;;;;35.42;24.42;;;;;;;;;;5107463;28;20186;-60
2022/03/17 08:02:21;;;;;;;33.60;21.05;;;;;;;;;;5097208;28;20175;-60
2022/03/17 08:04:49;;;;;;;30.95;19.33;;;;;;;;;;5092849;28;20644;-60
2022/03/17 08:07:15;;;;;;;29.73;20.40;;;;;;;;;;5105915;28;20628;-60
2022/03/17 08:09:41;;;;;;;29.13;19.40;;;;;;;;;;5102261;28;20191;-60
2022/03/17 08:12:06;;;;;;;29.55;18.52;;;;;;;;;;5087815;28;20176;-60
2022/03/17 08:14:31;;;;;;;31.67;18.20;;;;;;;;;;5096044;28;21046;-60
2022/03/17 08:16:57;;;;;;;30.38;20.20;;;;;;;;;;5097505;28;20179;-60
2022/03/17 08:19:22;;;;;;;31.25;20.05;;;;;;;;;;5104178;28;20238;-60
2022/03/17 08:21:47;;;;;;;31.83;19.75;;;;;;;;;;5093871;28;20186;-60
2022/03/17 08:24:13;;;;;;;29.42;19.05;;;;;;;;;;5098884;28;20198;-61
2022/03/17 08:26:39;;;;;;;34.28;21.98;;;;;;;;;;5100991;28;20319;-60
2022/03/17 08:29:04;;;;;;;30.75;20.65;;;;;;;;;;5090613;28;20185;-61
2022/03/17 08:31:30;;;;;;;34.30;21.45;;;;;;;;;;5100374;28;20180;-60
2022/03/17 08:33:58;;;;;;;31.88;21.33;;;;;;;;;;5087630;28;20491;-60
2022/03/17 08:36:24;;;;;;;35.13;21.77;;;;;;;;;;5096347;28;20213;-60
2022/03/17 08:38:53;;;;;;;38.88;23.77;;;;;;;;;;5098366;28;20171;-60
2022/03/17 08:41:19;;;;;;;30.38;21.40;;;;;;;;;;5100727;28;20188;-60
2022/03/17 08:43:44;;;;;;;35.67;22.80;;;;;;;;;;5098572;28;20209;-60
2022/03/17 08:51:37;;;;;;;36.75;23.40;;;;;;;;;;5096509;28;20179;-60
2022/03/17 08:54:02;;;;;;;33.33;22.35;;;;;;;;;;5099874;28;20172;-60
2022/03/17 08:56:28;;;;;;;38.78;24.92;;;;;;;;;;5095075;28;20743;-60
2022/03/17 08:58:54;;;;;;;36.85;21.98;;;;;;;;;;5097396;28;20271;-60
2022/03/17 09:01:19;;;;;;;41.35;24.65;;;;;;;;;;5103652;28;20236;-60
2022/03/17 09:03:44;;;;;;;36.38;24.65;;;;;;;;;;5103337;28;20274;-60
2022/03/17 09:06:11;;;;;;;38.05;23.20;;;;;;;;;;5098542;28;20182;-60
2022/03/17 09:08:36;;;;;;;36.00;21.30;;;;;;;;;;5096448;28;21156;-60
2022/03/17 09:11:01;;;;;;;32.42;20.90;;;;;;;;;;5110175;28;20180;-60
2022/03/17 09:13:28;;;;;;;31.95;20.45;;;;;;;;;;5096136;28;20189;-60
2022/03/17 09:15:54;;;;;;;30.05;19.00;;;;;;;;;;5106299;28;20187;-60
2022/03/17 09:18:21;;;;;;;30.67;19.20;;;;;;;;;;5099851;28;20210;-60
2022/03/17 09:20:47;;;;;;;31.75;19.60;;;;;;;;;;5101280;28;20270;-60
2022/03/17 09:23:12;;;;;;;33.58;20.92;;;;;;;;;;5099140;28;20799;-60
2022/03/17 09:25:37;;;;;;;35.20;22.50;;;;;;;;;;5103293;28;20179;-60
2022/03/17 09:28:04;;;;;;;32.35;20.00;;;;;;;;;;5106064;28;20258;-60
2022/03/17 09:30:29;;;;;;;29.52;18.63;;;;;;;;;;5089870;28;20656;-60
2022/03/17 09:32:54;;;;;;;30.20;19.23;;;;;;;;;;5094424;28;20238;-60
2022/03/17 09:35:20;;;;;;;34.20;20.80;;;;;;;;;;5101807;28;20218;-60
2022/03/17 09:37:46;;;;;;;31.35;20.02;;;;;;;;;;5098338;28;20191;-60
2022/03/17 09:40:12;;;;;;;28.27;18.25;;;;;;;;;;5099645;28;20716;-60
2022/03/17 09:42:38;;;;;;;29.08;19.42;;;;;;;;;;5102013;28;20206;-60
2022/03/17 09:45:04;;;;;;;29.13;18.77;;;;;;;;;;5100264;28;20179;-60
2022/03/17 09:47:33;;;;;;;25.80;16.63;;;;;;;;;;5109188;28;20172;-60
2022/03/17 09:49:59;;;;;;;26.73;17.73;;;;;;;;;;5107123;28;20195;-60
2022/03/17 09:52:26;;;;;;;29.10;18.58;;;;;;;;;;5096891;28;20183;-60
2022/03/17 09:54:52;;;;;;;26.63;16.60;;;;;;;;;;5091395;28;20172;-61
2022/03/17 09:57:17;;;;;;;22.38;16.00;;;;;;;;;;5095595;28;20176;-60
2022/03/17 09:59:48;;;;;;;28.77;18.38;;;;;;;;;;5098155;28;20297;-61
2022/03/17 10:02:17;;;;;;;27.48;19.08;;;;;;;;;;5099887;28;20255;-60
2022/03/17 10:04:44;;;;;;;26.15;17.70;;;;;;;;;;5106584;28;20221;-60
2022/03/17 10:07:10;;;;;;;25.38;17.27;;;;;;;;;;5098232;28;20176;-60
2022/03/17 10:09:36;;;;;;;24.42;17.13;;;;;;;;;;5100817;28;20207;-60
2022/03/17 10:12:01;;;;;;;25.98;17.35;;;;;;;;;;5107320;28;20214;-60
2022/03/17 10:14:35;;;;;;;27.40;19.20;;;;;;;;;;5104941;28;20187;-60
2022/03/17 10:17:03;;;;;;;29.90;19.38;;;;;;;;;;5098271;28;20194;-60
2022/03/17 10:19:31;;;;;;;23.73;17.27;;;;;;;;;;5087993;28;20275;-61
2022/03/17 10:22:05;;;;;;;27.25;18.55;;;;;;;;;;5098764;28;20187;-60
2022/03/17 10:24:33;;;;;;;23.85;17.10;;;;;;;;;;5101584;28;20344;-61
2022/03/17 10:26:59;;;;;;;29.23;16.55;;;;;;;;;;5099577;28;20263;-60
2022/03/17 10:29:27;;;;;;;28.38;17.70;;;;;;;;;;5106247;28;20326;-61
2022/03/17 10:31:52;;;;;;;62.40;31.23;;;;;;;;;;5098893;28;20255;-60
2022/03/17 10:34:18;;;;;;;33.47;21.95;;;;;;;;;;5098295;28;20279;-60
2022/03/17 10:36:47;;;;;;;28.38;19.52;;;;;;;;;;5098970;28;20237;-60
2022/03/17 10:39:13;;;;;;;29.85;17.23;;;;;;;;;;5102111;28;20310;-60
2022/03/17 10:41:39;;;;;;;27.33;18.80;;;;;;;;;;5078323;28;20285;-60
2022/03/17 10:44:09;;;;;;;31.67;20.00;;;;;;;;;;5078590;28;20277;-60
2022/03/17 10:46:34;;;;;;;25.05;16.70;;;;;;;;;;5100467;28;20558;-60
2022/03/17 10:48:59;;;;;;;26.63;18.42;;;;;;;;;;5089783;28;20233;-60
2022/03/17 10:51:37;;;;;;;27.15;19.30;;;;;;;;;;5093083;28;20199;-61
2022/03/17 10:54:03;;;;;;;26.45;19.05;;;;;;;;;;5105654;28;20187;-60
2022/03/17 10:56:29;;;;;;;24.58;17.63;;;;;;;;;;5096849;28;20176;-61
2022/03/17 10:58:54;;;;;;;27.00;18.10;;;;;;;;;;5091433;28;20541;-60
2022/03/17 11:01:33;;;;;;;31.40;19.80;;;;;;;;;;5101975;28;20187;-60
2022/03/17 11:03:59;;;;;;;32.53;20.77;;;;;;;;;;5097886;28;20791;-60
2022/03/17 11:06:24;;;;;;;30.60;19.55;;;;;;;;;;5099905;28;20180;-60
2022/03/17 11:08:50;;;;;;;29.80;17.13;;;;;;;;;;5105590;28;20215;-60
2022/03/17 11:11:16;;;;;;;23.02;17.20;;;;;;;;;;5102949;28;20227;-60
2022/03/17 11:13:42;;;;;;;29.17;20.50;;;;;;;;;;5094817;28;20184;-60
2022/03/17 11:16:09;;;;;;;28.80;20.25;;;;;;;;;;5098199;28;20258;-61
2022/03/17 11:18:36;;;;;;;27.35;18.52;;;;;;;;;;5102065;28;20256;-61
2022/03/17 11:21:16;;;;;;;27.50;18.58;;;;;;;;;;5107929;28;20183;-61
2022/03/17 11:23:55;;;;;;;22.60;17.25;;;;;;;;;;5095867;28;20199;-60
2022/03/17 11:26:40;;;;;;;24.50;15.85;;;;;;;;;;5098228;28;20851;-60
2022/03/17 11:29:18;;;;;;;26.40;17.75;;;;;;;;;;5103547;28;20175;-60
2022/03/17 11:32:05;;;;;;;21.80;16.80;;;;;;;;;;5097450;28;20215;-60
2022/03/17 11:34:50;;;;;;;29.73;20.05;;;;;;;;;;5097926;28;20207;-60
2022/03/17 11:37:15;;;;;;;30.60;20.48;;;;;;;;;;5090867;28;20554;-60
2022/03/17 11:39:54;;;;;;;26.38;18.00;;;;;;;;;;5094444;28;20192;-60
2022/03/17 11:42:39;;;;;;;25.05;18.52;;;;;;;;;;5100554;28;20322;-60
2022/03/17 11:45:09;;;;;;;27.15;18.77;;;;;;;;;;5095966;28;20649;-60
2022/03/17 11:47:36;;;;;;;22.85;17.23;;;;;;;;;;5098341;28;20245;-60
2022/03/17 11:50:22;;;;;;;22.30;16.67;;;;;;;;;;5098384;28;20195;-60
2022/03/17 11:53:07;;;;;;;27.25;18.50;;;;;;;;;;5103420;28;20195;-61
2022/03/17 11:55:33;;;;;;;32.20;21.58;;;;;;;;;;5096784;28;20199;-60
2022/03/17 11:58:17;;;;;;;28.80;19.80;;;;;;;;;;5093254;28;20226;-60
2022/03/17 12:00:52;;;;;;;27.55;18.02;;;;;;;;;;5105270;28;20207;-60
2022/03/17 12:03:44;;;;;;;21.33;15.77;;;;;;;;;;5098917;28;20775;-60
2022/03/17 12:06:10;;;;;;;29.83;19.38;;;;;;;;;;5093933;28;20192;-60
2022/03/17 12:08:39;;;;;;;27.23;19.17;;;;;;;;;;5097792;28;20178;-60
2022/03/17 12:11:08;;;;;;;22.10;16.00;;;;;;;;;;5103170;28;20203;-60
2022/03/17 12:13:37;;;;;;;28.92;19.63;;;;;;;;;;5099022;28;20172;-60
2022/03/17 12:16:03;;;;;;;28.15;18.85;;;;;;;;;;5099550;28;20179;-60
2022/03/17 12:18:28;;;;;;;24.30;16.67;;;;;;;;;;5096901;28;20203;-60
2022/03/17 12:20:54;;;;;;;23.63;16.23;;;;;;;;;;5095941;28;20245;-60
2022/03/17 12:23:38;;;;;;;35.03;22.90;;;;;;;;;;5100448;28;20196;-60
2022/03/17 12:26:04;;;;;;;45.50;26.65;;;;;;;;;;5099584;28;20183;-60
2022/03/17 12:28:32;;;;;;;38.83;27.52;;;;;;;;;;5096987;28;20945;-60
2022/03/17 12:30:57;;;;;;;46.90;25.90;;;;;;;;;;5100263;28;20258;-60
2022/03/17 12:33:24;;;;;;;30.85;20.85;;;;;;;;;;5091515;28;20315;-61
2022/03/17 12:36:03;;;;;;;24.17;15.55;;;;;;;;;;5087596;28;20172;-60
2022/03/17 12:38:28;;;;;;;20.17;13.32;;;;;;;;;;5104708;28;20183;-60
2022/03/17 12:40:56;;;;;;;16.25;11.82;;;;;;;;;;5107120;28;20199;-60
2022/03/17 12:43:22;;;;;;;17.67;11.43;;;;;;;;;;5105947;28;20194;-60
2022/03/17 12:45:49;;;;;;;19.67;12.82;;;;;;;;;;5104816;28;20171;-61
2022/03/17 12:48:16;;;;;;;15.43;11.45;;;;;;;;;;5099495;28;20295;-60
2022/03/17 12:50:41;;;;;;;14.20;11.40;;;;;;;;;;5101595;28;20268;-60
2022/03/17 12:53:07;;;;;;;14.85;11.40;;;;;;;;;;5097379;27;20668;-60
2022/03/17 12:55:33;;;;;;;15.13;11.68;;;;;;;;;;5096242;28;20267;-60
2022/03/17 12:57:58;;;;;;;19.13;12.75;;;;;;;;;;5100956;27;20191;-60
2022/03/17 13:00:24;;;;;;;17.40;12.23;;;;;;;;;;5098109;28;20184;-60
2022/03/17 13:02:50;;;;;;;18.23;13.18;;;;;;;;;;5102733;28;20199;-60
2022/03/17 13:08:01;;;;;;;13.30;9.90;;;;;;;;;;5086314;28;20576;-60
2022/03/17 13:10:27;;;;;;;17.52;12.73;;;;;;;;;;5080108;28;20188;-60
2022/03/17 13:15:36;;;;;;;18.00;14.27;;;;;;;;;;5101769;28;20229;-60
2022/03/17 13:18:03;;;;;;;9.77;7.57;;;;;;;;;;5099594;28;20180;-61
2022/03/17 13:20:29;;;;;;;9.65;7.30;;;;;;;;;;5094937;28;20172;-64
2022/03/17 13:23:00;;;;;;;11.52;9.70;;;;;;;;;;5091117;28;20210;-60
2022/03/17 13:25:26;;;;;;;10.93;9.35;;;;;;;;;;5101623;28;20171;-60
2022/03/17 13:27:58;;;;;;;21.73;13.32;;;;;;;;;;5104466;28;20176;-60
2022/03/17 13:30:24;;;;;;;14.25;10.35;;;;;;;;;;5098613;27;20187;-60
2022/03/17 13:32:59;;;;;;;18.15;14.10;;;;;;;;;;5100624;28;20257;-60
2022/03/17 13:35:25;;;;;;;12.02;8.55;;;;;;;;;;5096291;28;20192;-60
2022/03/17 13:37:50;;;;;;;14.93;9.82;;;;;;;;;;5109717;28;20182;-60
2022/03/17 13:40:17;;;;;;;34.35;20.50;;;;;;;;;;5107728;28;20187;-60
2022/03/17 13:43:01;;;;;;;16.77;11.65;;;;;;;;;;5102386;28;21146;-60
2022/03/17 13:45:42;;;;;;;7.90;6.35;;;;;;;;;;5098748;28;20179;-60
2022/03/17 13:48:09;;;;;;;17.08;12.30;;;;;;;;;;5107794;28;20171;-60
2022/03/17 13:50:41;;;;;;;18.88;12.35;;;;;;;;;;5080878;28;20204;-60
2022/03/17 13:53:08;;;;;;;25.92;15.93;;;;;;;;;;5099268;28;20259;-60
2022/03/17 13:55:44;;;;;;;18.80;10.75;;;;;;;;;;5100076;28;20219;-60
2022/03/17 13:58:09;;;;;;;14.38;10.02;;;;;;;;;;5102633;28;20176;-60
2022/03/17 14:00:34;;;;;;;17.95;11.00;;;;;;;;;;5090632;28;20183;-60
2022/03/17 14:03:13;;;;;;;22.73;13.38;;;;;;;;;;5102338;28;20231;-60
2022/03/17 14:05:57;;;;;;;19.60;13.38;;;;;;;;;;5104596;28;20211;-60
2022/03/17 14:08:23;;;;;;;21.85;13.90;;;;;;;;;;5093661;28;20179;-60
2022/03/17 14:10:49;;;;;;;26.00;16.67;;;;;;;;;;5098628;28;20182;-60
2022/03/17 14:13:14;;;;;;;28.05;16.85;;;;;;;;;;5098609;28;20194;-60
2022/03/17 14:15:39;;;;;;;30.15;18.17;;;;;;;;;;5100676;28;20176;-60
2022/03/17 14:18:06;;;;;;;29.13;17.70;;;;;;;;;;5100097;28;20628;-60
2022/03/17 14:20:32;;;;;;;26.85;17.63;;;;;;;;;;5105890;28;20246;-60
2022/03/17 14:25:41;;;;;;;32.28;19.15;;;;;;;;;;5090625;28;20211;-60
2022/03/17 14:28:06;;;;;;;29.05;20.48;;;;;;;;;;5103263;28;20204;-60
2022/03/17 14:30:32;;;;;;;28.45;18.58;;;;;;;;;;5090693;28;20177;-60
2022/03/17 14:32:57;;;;;;;37.25;21.90;;;;;;;;;;5079207;28;20188;-60
2022/03/17 14:35:22;;;;;;;32.25;19.80;;;;;;;;;;5078921;28;20237;-60
2022/03/17 14:37:48;;;;;;;28.17;17.65;;;;;;;;;;5083923;28;20583;-60
2022/03/17 14:40:13;;;;;;;31.20;18.33;;;;;;;;;;5103592;28;20229;-60
2022/03/17 14:42:38;;;;;;;30.40;20.17;;;;;;;;;;5099746;28;20640;-60
2022/03/17 14:45:04;;;;;;;33.88;19.20;;;;;;;;;;5095245;28;20624;-61
2022/03/17 14:47:32;;;;;;;27.48;18.52;;;;;;;;;;5099118;28;20175;-60